Time;durP1;ratioP1;P1;durP2;ratioP2;P2;SDS_P1;SDS_P2;PMS_P1;PMS_P2;Temp;Humidity;BMP_temperature;BMP_pressure;BME280_temperature;BME280_humidity;BME280_pressure;Samples;Min_cycle;Max_cycle;Signal;HPM_P1;HPM_P2
2022/09/17 00:00:41;;;;;;;1.95;0.85;;;;;;;20.44;50.75;101141.28;5045054;28;20044;-59
2022/09/17 00:03:08;;;;;;;1.65;0.90;;;;;;;20.44;50.66;101137.75;5045491;28;20040;-59
2022/09/17 00:05:36;;;;;;;1.52;0.90;;;;;;;20.44;50.65;101132.34;5034405;28;20025;-58
2022/09/17 00:08:03;;;;;;;1.20;0.70;;;;;;;20.41;51.02;101122.72;5039149;28;20033;-58
2022/09/17 00:10:29;;;;;;;3.28;0.90;;;;;;;20.41;50.76;101124.59;5043649;28;20216;-59
2022/09/17 00:12:54;;;;;;;1.83;0.82;;;;;;;20.42;50.98;101131.66;5031499;28;20538;-58
2022/09/17 00:15:19;;;;;;;3.10;0.88;;;;;;;20.31;51.01;101119.38;5044312;28;20022;-58
2022/09/17 00:17:44;;;;;;;2.08;0.90;;;;;;;20.36;50.88;101135.06;5032848;28;20032;-58
2022/09/17 00:20:10;;;;;;;3.03;1.10;;;;;;;20.36;51.08;101133.19;5042697;28;20032;-58
2022/09/17 00:22:36;;;;;;;4.50;1.23;;;;;;;20.40;51.09;101139.09;5039119;28;20044;-58
2022/09/17 00:25:03;;;;;;;1.48;0.75;;;;;;;20.39;50.84;101134.69;5042747;28;20017;-58
2022/09/17 00:27:28;;;;;;;2.45;0.80;;;;;;;20.39;50.92;101129.28;5033962;28;20028;-58
2022/09/17 00:29:53;;;;;;;3.00;0.68;;;;;;;20.39;50.75;101148.19;5013549;28;20030;-58
2022/09/17 00:32:18;;;;;;;1.55;0.80;;;;;;;20.37;50.45;101145.69;5038120;28;20029;-58
2022/09/17 00:34:45;;;;;;;1.95;0.70;;;;;;;20.38;50.76;101141.13;5037159;28;20021;-58
2022/09/17 00:37:10;;;;;;;2.15;0.80;;;;;;;20.37;50.79;101144.84;5030777;28;20029;-59
2022/09/17 00:39:36;;;;;;;1.83;0.82;;;;;;;20.38;50.46;101154.63;5040651;28;20029;-59
2022/09/17 00:42:04;;;;;;;1.88;0.70;;;;;;;20.36;50.66;101160.22;5044550;28;20088;-59
2022/09/17 00:44:40;;;;;;;3.15;1.15;;;;;;;20.36;50.93;101151.28;5040144;28;20526;-59
2022/09/17 00:47:19;;;;;;;1.85;0.95;;;;;;;20.27;50.79;101146.91;5019390;28;20063;-59
2022/09/17 00:49:45;;;;;;;1.40;0.65;;;;;;;20.34;50.59;101155.97;5044351;28;20021;-59
2022/09/17 00:52:13;;;;;;;2.03;0.82;;;;;;;20.34;50.84;101150.59;5014520;28;20044;-58
2022/09/17 00:54:40;;;;;;;3.75;0.80;;;;;;;20.33;50.93;101152.44;5043303;28;20480;-59
2022/09/17 00:57:05;;;;;;;3.25;1.05;;;;;;;20.25;50.71;101141.66;5026754;28;20097;-59
2022/09/17 00:59:31;;;;;;;3.30;1.25;;;;;;;20.32;50.46;101152.63;5026804;28;20033;-59
2022/09/17 01:01:57;;;;;;;3.70;1.05;;;;;;;20.32;50.59;101153.47;5042952;28;20018;-59
2022/09/17 01:04:24;;;;;;;2.58;0.95;;;;;;;20.31;50.81;101151.78;5055104;28;20010;-58
2022/09/17 01:07:01;;;;;;;1.90;0.80;;;;;;;20.30;50.97;101154.63;5030561;28;20144;-59
2022/09/17 01:09:55;;;;;;;3.20;0.88;;;;;;;20.30;50.60;101160.03;5026039;28;20381;-57
2022/09/17 01:12:51;;;;;;;3.05;1.27;;;;;;;20.27;50.95;101166.66;5025552;28;20029;-59
2022/09/17 01:15:25;;;;;;;2.60;0.80;;;;;;;20.28;50.57;101160.22;5030417;28;20040;-58
2022/09/17 01:18:03;;;;;;;2.40;1.00;;;;;;;20.28;50.62;101167.47;5044131;28;20021;-59
2022/09/17 01:20:48;;;;;;;2.67;0.88;;;;;;;20.19;50.61;101155.84;5030720;28;20028;-59
2022/09/17 01:23:22;;;;;;;2.78;0.90;;;;;;;20.27;50.60;101163.09;5042420;28;20133;-59
2022/09/17 01:26:24;;;;;;;2.03;0.80;;;;;;;20.25;50.67;101165.13;5025752;28;20029;-59
2022/09/17 01:29:04;;;;;;;2.72;0.98;;;;;;;20.23;50.88;101174.25;5012592;28;20025;-57
2022/09/17 01:31:37;;;;;;;2.90;1.05;;;;;;;20.25;50.76;101170.53;5030084;28;20043;-59
2022/09/17 01:34:17;;;;;;;2.13;1.00;;;;;;;20.22;50.80;101172.56;5026449;28;20102;-60
2022/09/17 01:36:54;;;;;;;2.72;1.10;;;;;;;20.22;50.46;101174.41;5017144;28;20026;-59
2022/09/17 01:39:46;;;;;;;1.95;0.80;;;;;;;20.21;50.78;101175.41;5022246;28;20033;-59
2022/09/17 01:42:30;;;;;;;2.67;0.73;;;;;;;20.21;50.72;101184.34;5025867;28;20030;-60
2022/09/17 01:45:18;;;;;;;1.10;0.70;;;;;;;20.20;50.41;101179.97;5026250;28;20054;-59
2022/09/17 01:47:49;;;;;;;2.15;0.90;;;;;;;20.20;50.86;101188.06;5022594;28;20394;-59
2022/09/17 01:50:19;;;;;;;2.05;0.75;;;;;;;20.20;50.71;101192.63;5015629;28;20040;-59
2022/09/17 01:52:47;;;;;;;1.98;1.00;;;;;;;20.18;50.71;101192.81;5025757;28;20097;-59
2022/09/17 01:55:14;;;;;;;4.22;1.35;;;;;;;20.18;50.42;101200.91;5043854;28;20021;-59
2022/09/17 01:57:46;;;;;;;3.25;1.23;;;;;;;20.18;50.70;101194.66;5043727;28;20028;-58
2022/09/17 02:00:13;;;;;;;2.58;0.70;;;;;;;20.17;50.59;101191.09;5025792;28;20482;-59
2022/09/17 02:03:16;;;;;;;3.35;1.10;;;;;;;20.16;50.62;101189.41;5025464;28;20035;-59
2022/09/17 02:05:44;;;;;;;2.72;0.80;;;;;;;20.16;50.65;101173.22;5042370;28;20512;-59
2022/09/17 02:08:19;;;;;;;2.63;0.93;;;;;;;20.15;50.65;101185.03;5040296;28;20037;-58
2022/09/17 02:10:50;;;;;;;2.10;0.68;;;;;;;20.15;50.70;101179.66;5016690;28;20485;-58
2022/09/17 02:13:21;;;;;;;2.85;1.10;;;;;;;20.15;50.77;101186.91;5030458;28;20021;-59
2022/09/17 02:15:51;;;;;;;2.42;1.00;;;;;;;20.14;50.53;101180.66;5042317;28;20036;-59
2022/09/17 02:18:34;;;;;;;2.47;0.90;;;;;;;20.13;50.60;101189.75;5023214;28;20142;-59
2022/09/17 02:21:11;;;;;;;3.10;1.10;;;;;;;20.12;50.40;101185.38;5042483;28;20034;-59
2022/09/17 02:23:45;;;;;;;4.03;1.05;;;;;;;20.11;50.62;101186.41;5008930;28;20013;-59
2022/09/17 02:26:14;;;;;;;1.52;0.77;;;;;;;20.12;50.32;101187.25;5015042;28;20533;-59
2022/09/17 02:28:49;;;;;;;3.17;1.00;;;;;;;20.10;50.70;101182.03;5025556;28;20047;-59
2022/09/17 02:31:14;;;;;;;2.42;1.00;;;;;;;20.10;50.32;101186.56;5024178;28;20021;-58
2022/09/17 02:33:41;;;;;;;2.13;0.80;;;;;;;20.09;50.67;101192.97;5047273;28;20059;-58
2022/09/17 02:36:06;;;;;;;2.72;0.98;;;;;;;20.09;50.32;101190.25;5024691;28;20029;-59
2022/09/17 02:38:32;;;;;;;1.90;0.80;;;;;;;20.09;50.56;101190.25;5042475;28;20060;-58
2022/09/17 02:41:11;;;;;;;2.38;0.80;;;;;;;20.07;50.45;101190.44;5043017;28;20084;-58
2022/09/17 02:43:58;;;;;;;2.08;0.95;;;;;;;20.08;50.36;101207.47;5011163;28;20026;-59
2022/09/17 02:46:46;;;;;;;2.78;0.80;;;;;;;20.07;50.40;101209.34;5040666;28;20032;-59
2022/09/17 02:49:39;;;;;;;2.67;0.80;;;;;;;20.06;50.52;101204.97;5041008;28;20037;-59
2022/09/17 02:52:30;;;;;;;2.60;0.88;;;;;;;20.05;50.41;101205.13;5031914;28;20029;-59
2022/09/17 02:54:58;;;;;;;2.20;0.98;;;;;;;20.04;50.32;101204.28;5047414;28;20084;-59
2022/09/17 02:57:39;;;;;;;2.80;1.20;;;;;;;20.03;50.22;101209.84;5033037;28;20028;-59
2022/09/17 03:00:13;;;;;;;1.58;0.70;;;;;;;20.04;50.57;101203.44;5042959;28;20029;-59
2022/09/17 03:02:41;;;;;;;1.85;0.73;;;;;;;20.03;50.17;101204.44;5045172;28;20021;-59
2022/09/17 03:05:07;;;;;;;2.10;0.90;;;;;;;20.00;50.27;101194.81;5046032;28;20021;-59
2022/09/17 03:07:32;;;;;;;2.05;0.98;;;;;;;20.01;50.14;101204.63;5045186;28;20033;-59
2022/09/17 03:09:58;;;;;;;3.25;1.00;;;;;;;19.94;50.47;101190.13;5029313;28;20362;-59
2022/09/17 03:12:24;;;;;;;1.90;1.13;;;;;;;20.01;50.16;101198.38;5046361;28;20076;-59
2022/09/17 03:14:49;;;;;;;2.92;1.00;;;;;;;19.99;50.54;101198.53;5029360;28;20057;-59
2022/09/17 03:17:15;;;;;;;2.05;0.88;;;;;;;19.99;50.09;101201.25;5046477;28;20034;-58
2022/09/17 03:19:40;;;;;;;1.80;0.82;;;;;;;19.98;50.41;101199.56;5046723;28;20030;-58
2022/09/17 03:22:05;;;;;;;2.75;0.80;;;;;;;19.98;50.34;101200.41;5045270;28;20040;-58
2022/09/17 03:24:30;;;;;;;1.20;0.70;;;;;;;19.97;50.46;101195.19;5042209;28;20030;-58
2022/09/17 03:26:56;;;;;;;1.80;1.23;;;;;;;19.97;50.30;101197.88;5036950;28;20544;-58
2022/09/17 03:29:21;;;;;;;4.22;1.05;;;;;;;19.94;50.39;101192.81;5032684;28;20097;-58
2022/09/17 03:31:46;;;;;;;2.90;1.10;;;;;;;19.96;50.49;101205.13;5037204;28;20036;-58
2022/09/17 03:34:11;;;;;;;1.52;0.65;;;;;;;19.96;50.13;101220.47;5044679;28;20021;-58
2022/09/17 03:36:37;;;;;;;1.58;1.08;;;;;;;19.94;50.12;101217.94;5031062;28;20079;-59
2022/09/17 03:39:02;;;;;;;1.73;0.75;;;;;;;19.94;50.56;101217.09;5043746;28;20144;-59
2022/09/17 03:41:27;;;;;;;2.78;0.77;;;;;;;19.93;50.44;101210.88;5038815;28;20034;-58
2022/09/17 03:43:52;;;;;;;2.28;1.17;;;;;;;19.93;50.45;101221.66;5035554;28;20017;-59
2022/09/17 03:46:19;;;;;;;2.00;1.00;;;;;;;19.93;50.26;101213.56;5031943;28;20038;-59
2022/09/17 03:48:44;;;;;;;1.85;0.90;;;;;;;19.92;50.03;101209.19;5039082;28;20512;-59
2022/09/17 03:51:10;;;;;;;1.02;0.70;;;;;;;19.93;50.53;101212.72;5037967;28;20034;-59
2022/09/17 03:53:35;;;;;;;2.65;0.90;;;;;;;19.91;50.51;101212.88;5032178;28;20044;-59
2022/09/17 03:56:02;;;;;;;1.65;0.70;;;;;;;19.92;50.01;101219.09;5034946;28;20057;-59
2022/09/17 03:58:29;;;;;;;2.17;1.05;;;;;;;19.91;50.39;101226.38;5040079;28;20052;-58
2022/09/17 04:00:56;;;;;;;2.75;1.00;;;;;;;19.90;50.26;101229.25;5034780;28;20025;-59
2022/09/17 04:03:22;;;;;;;1.45;0.80;;;;;;;19.85;49.98;101213.56;5044391;28;20060;-59
2022/09/17 04:05:48;;;;;;;2.75;1.10;;;;;;;19.88;50.43;101232.13;5032499;28;20029;-58
2022/09/17 04:08:13;;;;;;;1.45;0.80;;;;;;;19.88;50.10;101232.13;5032200;28;20044;-59
2022/09/17 04:10:38;;;;;;;4.55;1.00;;;;;;;19.87;50.49;101230.41;5039902;28;20030;-58
2022/09/17 04:13:04;;;;;;;1.75;0.77;;;;;;;19.89;50.21;101232.97;5036863;28;20482;-58
2022/09/17 04:15:29;;;;;;;2.35;1.42;;;;;;;19.84;50.53;101217.28;5045510;28;20473;-58
2022/09/17 04:17:56;;;;;;;2.20;1.13;;;;;;;19.85;50.18;101216.25;5036352;28;20057;-58
2022/09/17 04:20:22;;;;;;;1.65;0.82;;;;;;;19.85;50.01;101221.66;5022339;28;20096;-58
2022/09/17 04:22:47;;;;;;;3.25;1.00;;;;;;;19.84;50.25;101214.56;5045081;28;20037;-59
2022/09/17 04:25:13;;;;;;;2.55;1.00;;;;;;;19.85;50.44;101228.91;5045435;28;20032;-59
2022/09/17 04:27:38;;;;;;;2.17;0.95;;;;;;;19.84;50.02;101228.06;5045303;28;20025;-58
2022/09/17 04:30:04;;;;;;;2.00;0.82;;;;;;;19.84;50.19;101236.16;5045191;28;20038;-58
2022/09/17 04:32:29;;;;;;;2.67;0.80;;;;;;;19.84;50.37;101238.88;5030586;28;20077;-58
2022/09/17 04:34:55;;;;;;;2.65;1.02;;;;;;;19.83;50.00;101228.22;5044373;28;20570;-57
2022/09/17 04:37:20;;;;;;;2.10;0.70;;;;;;;19.82;49.99;101221.97;5033587;28;20034;-58
2022/09/17 04:39:46;;;;;;;2.08;0.95;;;;;;;19.80;50.04;101210.53;5037177;28;20402;-58
2022/09/17 04:42:11;;;;;;;1.98;0.80;;;;;;;19.77;50.21;101205.44;5035881;28;20084;-59
2022/09/17 04:44:36;;;;;;;2.17;0.90;;;;;;;19.81;50.07;101217.59;5039190;28;20087;-60
2022/09/17 04:47:01;;;;;;;2.40;0.90;;;;;;;19.81;50.04;101216.75;5031810;28;20029;-61
2022/09/17 04:49:29;;;;;;;2.08;0.80;;;;;;;19.80;50.03;101224.00;5032323;28;20041;-60
2022/09/17 04:51:55;;;;;;;2.43;1.40;;;;;;;19.79;50.11;101234.94;5037450;28;20084;-58
2022/09/17 04:54:21;;;;;;;3.92;0.85;;;;;;;19.80;50.31;101236.66;5042575;28;20267;-59
2022/09/17 04:56:46;;;;;;;1.67;0.70;;;;;;;19.79;50.16;101237.66;5044107;28;20032;-59
2022/09/17 04:59:11;;;;;;;2.03;0.63;;;;;;;19.80;50.34;101233.97;5042076;28;20081;-59
2022/09/17 05:01:37;;;;;;;2.20;0.93;;;;;;;19.79;50.16;101233.09;5040809;28;20025;-58
2022/09/17 05:04:02;;;;;;;1.55;1.08;;;;;;;19.78;50.43;101230.56;5043369;28;20032;-58
2022/09/17 05:06:27;;;;;;;3.35;0.95;;;;;;;19.78;50.20;101236.81;5041008;28;20674;-58
2022/09/17 05:08:52;;;;;;;1.67;0.88;;;;;;;19.78;49.95;101226.00;5044208;28;20061;-59
2022/09/17 05:11:18;;;;;;;3.35;1.40;;;;;;;19.78;50.34;101223.31;5043694;28;20033;-59
2022/09/17 05:13:43;;;;;;;2.55;0.85;;;;;;;19.79;50.11;101229.56;5044182;28;20071;-59
2022/09/17 05:16:09;;;;;;;2.63;1.15;;;;;;;19.78;50.08;101228.72;5043685;28;20459;-59
2022/09/17 05:18:34;;;;;;;1.90;0.63;;;;;;;19.78;50.34;101235.97;5046606;28;20029;-58
2022/09/17 05:20:59;;;;;;;1.75;0.80;;;;;;;19.78;50.28;101235.97;5042560;28;20025;-59
2022/09/17 05:23:24;;;;;;;1.38;0.93;;;;;;;19.79;50.93;101237.66;5043800;28;20033;-59
2022/09/17 05:25:51;;;;;;;2.55;1.00;;;;;;;19.78;50.36;101231.41;5034861;28;20032;-58
2022/09/17 05:28:16;;;;;;;3.00;0.90;;;;;;;19.68;50.44;101218.09;5041372;28;20030;-58
2022/09/17 05:30:42;;;;;;;1.98;0.80;;;;;;;19.79;50.40;101241.19;5043105;28;20029;-58
2022/09/17 05:33:07;;;;;;;2.42;0.88;;;;;;;19.74;50.59;101230.06;5049984;28;20058;-61
2022/09/17 05:35:34;;;;;;;6.88;1.05;;;;;;;19.80;50.95;101244.75;5039905;28;20083;-62
2022/09/17 05:38:01;;;;;;;2.80;1.08;;;;;;;19.80;50.63;101250.16;5043358;28;20017;-59
2022/09/17 05:40:27;;;;;;;1.95;0.70;;;;;;;19.81;50.95;101259.94;5040392;28;20033;-58
2022/09/17 05:43:03;;;;;;;2.33;0.75;;;;;;;19.81;51.03;101258.06;5034065;28;20033;-59
2022/09/17 05:45:29;;;;;;;1.75;0.80;;;;;;;19.83;50.97;101271.38;5036732;28;20021;-59
2022/09/17 05:47:58;;;;;;;1.70;0.77;;;;;;;19.84;50.77;101262.31;5042874;28;20048;-59
2022/09/17 05:50:25;;;;;;;2.40;0.90;;;;;;;19.85;50.39;101256.72;5042469;28;20018;-56
2022/09/17 05:52:50;;;;;;;1.92;0.73;;;;;;;19.80;50.60;101245.59;5042740;28;20045;-59
2022/09/17 05:55:17;;;;;;;3.70;0.98;;;;;;;19.82;50.60;101257.06;5043275;28;20029;-59
2022/09/17 05:57:42;;;;;;;2.22;0.75;;;;;;;19.84;50.71;101260.44;5042653;28;20041;-59
2022/09/17 06:00:08;;;;;;;2.97;0.93;;;;;;;19.84;50.69;101268.53;5024298;28;20029;-61
2022/09/17 06:02:33;;;;;;;2.15;0.90;;;;;;;19.84;50.76;101263.16;5035432;28;20021;-62
2022/09/17 06:05:00;;;;;;;5.50;1.08;;;;;;;19.85;50.66;101266.69;5032737;28;20031;-61
2022/09/17 06:07:26;;;;;;;1.85;0.80;;;;;;;19.84;50.86;101268.53;5032964;28;20057;-65
2022/09/17 06:09:51;;;;;;;2.58;0.77;;;;;;;19.87;51.00;101256.56;5036987;28;20036;-62
2022/09/17 06:12:16;;;;;;;2.50;0.70;;;;;;;19.87;50.81;101261.94;5037078;28;20017;-59
2022/09/17 06:14:42;;;;;;;1.77;0.70;;;;;;;19.83;50.98;101253.34;5041943;28;20026;-64
2022/09/17 06:17:07;;;;;;;1.98;0.60;;;;;;;19.89;51.32;101268.03;5040719;28;20038;-55
2022/09/17 06:19:32;;;;;;;3.33;1.00;;;;;;;19.89;51.20;101276.13;5041779;28;20033;-56
2022/09/17 06:21:57;;;;;;;2.55;0.73;;;;;;;19.89;50.85;101270.75;5043289;28;20021;-56
2022/09/17 06:24:23;;;;;;;2.55;0.90;;;;;;;19.88;50.89;101275.28;5049177;28;20539;-54
2022/09/17 06:26:48;;;;;;;2.60;0.95;;;;;;;19.88;51.37;101286.09;5047045;28;20037;-56
2022/09/17 06:29:14;;;;;;;2.95;0.88;;;;;;;19.88;50.95;101279.81;5045699;28;20044;-54
2022/09/17 06:31:40;;;;;;;1.50;0.70;;;;;;;19.81;50.58;101276.13;5044909;28;20033;-56
2022/09/17 06:34:05;;;;;;;2.00;0.73;;;;;;;19.87;50.88;101287.06;5044672;28;20040;-57
2022/09/17 06:36:30;;;;;;;2.45;0.80;;;;;;;19.88;50.84;101288.78;5042516;28;20032;-56
2022/09/17 06:38:55;;;;;;;3.80;0.80;;;;;;;19.81;50.54;101276.13;5051858;28;20041;-55
2022/09/17 06:41:21;;;;;;;2.03;0.80;;;;;;;19.89;50.42;101292.31;5038104;28;20029;-55
2022/09/17 06:43:46;;;;;;;3.03;1.15;;;;;;;19.87;50.42;101281.69;5025823;28;20026;-55
2022/09/17 06:46:11;;;;;;;1.10;0.60;;;;;;;19.91;50.59;101293.00;5028354;28;20040;-54
2022/09/17 06:48:37;;;;;;;2.03;0.80;;;;;;;19.93;50.27;101296.38;5025879;28;20086;-54
2022/09/17 06:51:04;;;;;;;1.83;0.70;;;;;;;19.94;50.60;101301.59;5025511;28;20450;-55
2022/09/17 06:53:30;;;;;;;2.65;0.80;;;;;;;19.95;50.38;101299.75;5027587;28;20056;-56
2022/09/17 06:55:57;;;;;;;4.13;0.95;;;;;;;19.95;50.30;101291.66;5025820;28;20026;-57
2022/09/17 06:58:23;;;;;;;2.10;1.00;;;;;;;19.96;50.16;101296.91;5028165;28;20022;-53
2022/09/17 07:00:48;;;;;;;2.08;0.65;;;;;;;19.95;50.30;101295.19;5036165;28;20048;-57
2022/09/17 07:03:13;;;;;;;1.95;0.70;;;;;;;19.94;50.39;101296.22;5037645;28;20486;-55
2022/09/17 07:05:38;;;;;;;4.57;1.10;;;;;;;19.94;50.42;101292.66;5039584;28;20048;-57
2022/09/17 07:08:04;;;;;;;1.88;0.75;;;;;;;19.92;50.01;101286.56;5031202;28;20061;-57
2022/09/17 07:10:30;;;;;;;3.28;0.60;;;;;;;19.79;50.03;101281.66;5027285;28;20049;-54
2022/09/17 07:12:55;;;;;;;1.33;0.85;;;;;;;19.92;50.14;101302.78;5025164;28;20022;-55
2022/09/17 07:15:21;;;;;;;1.92;0.70;;;;;;;19.91;50.22;101301.94;5032151;28;20027;-56
2022/09/17 07:17:46;;;;;;;1.20;0.60;;;;;;;19.88;50.28;101288.78;5028991;28;20065;-56
2022/09/17 07:20:12;;;;;;;1.40;0.63;;;;;;;19.90;49.92;101300.25;5031121;28;20041;-57
2022/09/17 07:22:37;;;;;;;1.77;0.80;;;;;;;19.85;50.26;101288.28;5052058;28;20017;-57
2022/09/17 07:25:03;;;;;;;1.23;0.60;;;;;;;19.91;50.27;101301.09;5040523;28;20014;-56
2022/09/17 07:27:29;;;;;;;1.92;0.65;;;;;;;19.91;50.13;101301.09;5034751;28;20033;-57
2022/09/17 07:29:55;;;;;;;4.13;0.93;;;;;;;19.90;50.15;101294.00;5053563;28;20065;-55
2022/09/17 07:32:20;;;;;;;3.13;0.90;;;;;;;19.89;50.02;101295.88;5046577;28;20021;-57
2022/09/17 07:34:46;;;;;;;2.22;0.70;;;;;;;19.88;49.69;101288.78;5046473;28;20628;-56
2022/09/17 07:37:11;;;;;;;2.67;1.27;;;;;;;19.81;50.02;101276.13;5045446;28;20029;-57
2022/09/17 07:39:36;;;;;;;1.25;0.70;;;;;;;19.81;50.06;101281.50;5045638;28;20105;-57
2022/09/17 07:42:03;;;;;;;1.70;0.80;;;;;;;19.90;49.81;101302.09;5045677;28;20037;-58
2022/09/17 07:44:29;;;;;;;2.80;1.00;;;;;;;19.92;49.58;101303.63;5033258;28;20050;-57
2022/09/17 07:46:54;;;;;;;1.77;0.70;;;;;;;19.93;49.90;101302.63;5031800;28;20037;-55
2022/09/17 07:49:19;;;;;;;1.80;0.70;;;;;;;19.87;49.81;101292.47;5045874;28;20029;-55
2022/09/17 07:51:44;;;;;;;3.13;1.10;;;;;;;19.99;49.58;101306.50;5040372;28;20641;-56
2022/09/17 07:54:10;;;;;;;1.42;0.70;;;;;;;19.98;49.70;101308.34;5030420;28;20029;-53
2022/09/17 07:56:35;;;;;;;2.13;0.77;;;;;;;19.98;49.50;101311.06;5035911;28;20033;-54
2022/09/17 07:59:02;;;;;;;1.98;0.80;;;;;;;19.97;49.38;101306.69;5045398;28;20030;-54
2022/09/17 08:01:27;;;;;;;1.33;0.90;;;;;;;19.97;49.73;101308.53;5044990;28;20056;-52
2022/09/17 08:03:53;;;;;;;1.58;0.65;;;;;;;19.98;49.45;101316.47;5045004;28;20037;-55
2022/09/17 08:06:27;;;;;;;1.65;0.60;;;;;;;19.98;49.47;101310.22;5044689;28;20601;-55
2022/09/17 08:08:56;;;;;;;1.10;0.63;;;;;;;19.97;49.38;101306.69;5043473;28;20034;-56
2022/09/17 08:11:23;;;;;;;2.08;0.80;;;;;;;19.97;49.73;101309.38;5044321;28;21074;-56
2022/09/17 08:13:50;;;;;;;1.52;0.70;;;;;;;19.98;49.31;101307.53;5042735;28;20029;-55
2022/09/17 08:16:16;;;;;;;1.58;0.77;;;;;;;19.97;49.83;101303.97;5045294;28;20521;-55
2022/09/17 08:18:42;;;;;;;0.93;0.65;;;;;;;19.97;49.35;101309.38;5042552;28;20041;-55
2022/09/17 08:21:13;;;;;;;1.73;0.80;;;;;;;19.96;49.54;101301.44;5043008;28;20033;-54
2022/09/17 08:23:40;;;;;;;3.00;0.90;;;;;;;20.00;49.51;101307.34;5056658;28;20055;-54
2022/09/17 08:26:07;;;;;;;1.63;0.82;;;;;;;20.04;49.36;101306.84;5041697;28;20057;-54
2022/09/17 08:28:33;;;;;;;2.00;0.60;;;;;;;20.08;49.51;101301.97;5027887;28;20057;-53
2022/09/17 08:31:10;;;;;;;2.28;0.90;;;;;;;20.12;49.38;101311.41;5032651;28;20064;-56
2022/09/17 08:33:37;;;;;;;1.55;0.60;;;;;;;20.14;49.25;101298.59;5041811;28;20029;-56
2022/09/17 08:36:03;;;;;;;2.65;0.82;;;;;;;20.19;49.32;101304.34;5043893;28;20022;-56
2022/09/17 08:38:31;;;;;;;1.67;0.88;;;;;;;20.22;49.02;101306.72;5045076;28;20033;-55
2022/09/17 08:41:09;;;;;;;2.10;0.80;;;;;;;20.26;49.04;101318.84;5044885;28;20026;-56
2022/09/17 08:44:02;;;;;;;2.10;0.93;;;;;;;20.29;49.02;101320.38;5027007;28;20031;-56
2022/09/17 08:46:32;;;;;;;1.77;0.88;;;;;;;20.31;48.45;101327.31;5044670;28;20041;-55
2022/09/17 08:49:04;;;;;;;1.40;0.90;;;;;;;20.32;48.47;101330.84;5044904;28;20029;-55
2022/09/17 08:51:53;;;;;;;1.05;0.57;;;;;;;20.29;48.87;101323.91;5043794;28;20021;-55
2022/09/17 08:54:27;;;;;;;1.88;0.88;;;;;;;20.26;48.58;101334.19;5033791;28;20077;-54
2022/09/17 08:57:07;;;;;;;2.25;0.60;;;;;;;20.20;48.87;101330.31;5020913;28;20021;-55
2022/09/17 08:59:41;;;;;;;2.15;1.00;;;;;;;20.03;48.73;101296.22;5019492;28;20046;-55
2022/09/17 09:02:26;;;;;;;2.53;1.00;;;;;;;20.28;48.87;101333.03;5012450;28;20030;-57
2022/09/17 09:05:07;;;;;;;2.22;1.05;;;;;;;20.35;48.80;101331.38;5030430;28;20093;-57
2022/09/17 09:07:42;;;;;;;1.65;0.60;;;;;;;20.41;48.56;101338.78;5032184;28;20036;-55
2022/09/17 09:10:43;;;;;;;2.35;0.80;;;;;;;20.46;48.10;101316.66;5031118;28;20041;-56
2022/09/17 09:13:10;;;;;;;2.42;0.77;;;;;;;20.56;48.11;101320.09;5021602;28;20109;-56
2022/09/17 09:15:46;;;;;;;2.42;0.80;;;;;;;20.62;47.91;101326.66;5044285;28;20060;-57
2022/09/17 09:18:18;;;;;;;3.00;0.90;;;;;;;20.69;47.75;101327.69;5026424;28;20018;-56
2022/09/17 09:20:54;;;;;;;2.28;0.80;;;;;;;20.74;47.62;101325.31;5039041;28;20097;-54
2022/09/17 09:23:22;;;;;;;2.92;1.10;;;;;;;20.80;47.46;101326.47;5035971;28;20021;-56
2022/09/17 09:25:53;;;;;;;3.15;0.75;;;;;;;20.86;47.20;101342.84;5012499;28;20021;-53
2022/09/17 09:28:42;;;;;;;2.35;0.65;;;;;;;20.87;47.16;101327.47;5033506;28;20178;-54
2022/09/17 09:31:31;;;;;;;2.53;0.82;;;;;;;20.84;46.89;101322.41;5011671;28;20457;-55
2022/09/17 09:33:57;;;;;;;1.08;0.47;;;;;;;20.78;46.86;101310.44;5050279;28;20033;-53
2022/09/17 09:36:27;;;;;;;1.83;0.77;;;;;;;20.83;47.10;101329.69;5043003;28;20068;-54
2022/09/17 09:38:58;;;;;;;2.13;0.75;;;;;;;20.87;47.14;101327.47;5034614;28;20053;-56
2022/09/17 09:41:36;;;;;;;1.38;0.52;;;;;;;20.85;46.92;101327.63;5025578;28;20039;-57
2022/09/17 09:44:04;;;;;;;1.45;0.80;;;;;;;20.86;46.83;101334.75;5026209;28;20083;-57
2022/09/17 09:46:51;;;;;;;1.35;0.50;;;;;;;20.84;46.82;101325.94;5043604;28;20109;-57
2022/09/17 09:49:25;;;;;;;1.55;0.80;;;;;;;20.85;46.92;101327.63;5042933;28;20029;-57
2022/09/17 09:51:59;;;;;;;1.55;0.60;;;;;;;20.83;46.94;101326.97;5024856;28;20085;-58
2022/09/17 09:54:42;;;;;;;1.45;0.70;;;;;;;20.84;47.22;101323.25;5043976;28;20424;-58
2022/09/17 09:57:12;;;;;;;2.78;0.82;;;;;;;20.78;47.15;101318.53;5023071;28;20056;-58
2022/09/17 09:59:37;;;;;;;1.15;0.60;;;;;;;20.81;47.00;101329.00;5041819;28;20037;-59
2022/09/17 10:02:03;;;;;;;1.40;0.70;;;;;;;20.82;47.48;101336.09;5042131;28;20029;-58
2022/09/17 10:04:31;;;;;;;2.80;0.70;;;;;;;20.80;47.46;101340.81;5042953;28;20068;-57
2022/09/17 10:07:07;;;;;;;1.27;0.80;;;;;;;20.80;47.42;101335.41;5031247;28;20138;-59
2022/09/17 10:09:35;;;;;;;1.90;0.70;;;;;;;20.84;47.06;101333.22;5014380;28;20030;-59
2022/09/17 10:12:07;;;;;;;5.30;1.90;;;;;;;20.89;47.38;101328.13;5014815;28;20045;-59
2022/09/17 10:14:34;;;;;;;3.65;1.80;;;;;;;20.94;47.03;101336.56;5031147;28;20270;-59
2022/09/17 10:17:12;;;;;;;6.03;2.10;;;;;;;20.97;46.92;101322.72;5033294;28;20021;-59
2022/09/17 10:19:38;;;;;;;7.75;3.40;;;;;;;21.02;46.99;101331.16;5027881;28;20041;-62
2022/09/17 10:22:23;;;;;;;6.90;2.75;;;;;;;21.02;47.37;101325.75;5032000;28;20034;-61
2022/09/17 10:24:51;;;;;;;3.97;2.03;;;;;;;21.01;47.37;101320.53;5025725;28;20025;-60
2022/09/17 10:27:18;;;;;;;6.32;2.60;;;;;;;20.99;47.45;101317.16;5013788;28;20555;-60
2022/09/17 10:29:49;;;;;;;5.05;2.25;;;;;;;20.98;47.41;101319.00;5010083;28;20045;-63
2022/09/17 10:32:16;;;;;;;6.68;2.13;;;;;;;20.99;47.47;101318.00;5018794;28;20029;-64
2022/09/17 10:35:23;;;;;;;6.25;1.98;;;;;;;20.99;47.67;101319.88;5039674;28;20041;-65
2022/09/17 10:37:50;;;;;;;3.80;1.88;;;;;;;20.97;47.63;101310.03;5020221;28;20049;-61
2022/09/17 10:40:18;;;;;;;5.32;2.20;;;;;;;20.97;47.93;101304.63;5037452;28;20044;-60
2022/09/17 10:42:47;;;;;;;6.10;2.13;;;;;;;21.00;48.01;101305.31;5036500;28;20060;-62
2022/09/17 10:45:27;;;;;;;4.38;2.20;;;;;;;21.02;47.97;101311.38;5029416;28;20017;-61
2022/09/17 10:47:53;;;;;;;5.25;2.58;;;;;;;20.98;48.04;101289.25;5028698;28;20034;-63
2022/09/17 10:50:31;;;;;;;4.88;2.35;;;;;;;21.04;47.75;101296.69;5040349;28;20086;-61
2022/09/17 10:52:59;;;;;;;6.00;2.03;;;;;;;21.03;47.49;101284.19;5043961;28;20029;-61
2022/09/17 10:55:37;;;;;;;5.28;1.95;;;;;;;21.01;47.58;101296.19;5040451;28;20047;-65
2022/09/17 10:58:18;;;;;;;3.83;1.83;;;;;;;20.98;47.73;101324.41;5028575;28;20043;-61
2022/09/17 11:00:47;;;;;;;4.03;1.60;;;;;;;20.91;47.96;101343.19;5009694;28;20034;-62
2022/09/17 11:03:43;;;;;;;5.55;2.03;;;;;;;20.86;47.93;101345.56;5039865;28;20045;-61
2022/09/17 11:06:29;;;;;;;4.15;1.70;;;;;;;20.81;48.02;101330.84;5029795;28;20036;-59
2022/09/17 11:09:05;;;;;;;5.38;2.13;;;;;;;20.75;48.03;101337.78;5037376;28;20025;-60
2022/09/17 11:11:56;;;;;;;4.85;1.70;;;;;;;20.71;48.53;101325.63;5028931;28;20029;-62
2022/09/17 11:14:46;;;;;;;3.55;1.60;;;;;;;20.70;48.40;101314.00;5023440;28;20091;-65
2022/09/17 11:17:40;;;;;;;3.72;1.50;;;;;;;20.66;48.52;101290.19;5037514;28;20037;-60
2022/09/17 11:20:21;;;;;;;4.40;1.85;;;;;;;20.78;48.62;101296.09;5012746;28;20850;-62
2022/09/17 11:23:00;;;;;;;5.80;1.88;;;;;;;20.81;48.59;101290.31;5036525;28;20026;-60
2022/09/17 11:25:44;;;;;;;5.18;2.20;;;;;;;20.81;48.77;101290.31;5041156;28;20097;-61
2022/09/17 11:28:17;;;;;;;5.57;2.30;;;;;;;20.69;48.98;101270.94;5032915;28;20030;-59
2022/09/17 11:31:05;;;;;;;4.78;2.05;;;;;;;20.85;49.00;101284.38;5022820;28;20701;-60
2022/09/17 11:34:20;;;;;;;4.13;2.08;;;;;;;20.86;48.66;101288.81;5043192;28;20025;-60
2022/09/17 11:37:04;;;;;;;4.47;2.22;;;;;;;20.87;48.80;101286.94;4977578;28;20106;-64
2022/09/17 11:39:37;;;;;;;2.40;1.40;;;;;;;20.86;49.19;101306.88;4982866;28;20034;-64